SWA2047 KSYR-KJFK
Flight info
| Callsign | SWA2047 |
|---|---|
| Flight time | N/A |
| Altitude | 27000 |
| Route | POMPY ARRKK PUCKY1 |
| Aircraft | B738/M-SDE2E3FGHIRWXY/LB1 |
Departure
| Time | 2026-04-26 18:34 |
|---|---|
| Airport | Syracuse Hancock International Airport (KSYR) |
Arrival
| Time | N/A |
|---|---|
| Airport | John F. Kennedy International Airport (KJFK) |
| Time | Latitude | Longitude | Altitude | Speed | Heading |
|---|---|---|---|---|---|
| 2026-04-26 18:11 | 43.11531 | -76.11015 | 420 ft | 0 kts | 177° |
| 2026-04-26 18:22 | 43.11541 | -76.11015 | 419 ft | 2 kts | 171° |
| 2026-04-26 18:23 | 43.11554 | -76.11023 | 419 ft | 2 kts | 145° |
| 2026-04-26 18:23 | 43.11565 | -76.11038 | 419 ft | 2 kts | 123° |
| 2026-04-26 18:23 | 43.11572 | -76.11056 | 419 ft | 2 kts | 101° |
| 2026-04-26 18:23 | 43.11573 | -76.11070 | 419 ft | 0 kts | 87° |
| 2026-04-26 18:24 | 43.11572 | -76.11079 | 419 ft | 0 kts | 85° |
| 2026-04-26 18:26 | 43.11577 | -76.11006 | 419 ft | 15 kts | 85° |
| 2026-04-26 18:26 | 43.11549 | -76.10868 | 419 ft | 13 kts | 168° |
| 2026-04-26 18:26 | 43.11469 | -76.10841 | 419 ft | 10 kts | 165° |
| 2026-04-26 18:27 | 43.11416 | -76.10832 | 419 ft | 5 kts | 177° |
| 2026-04-26 18:27 | 43.11375 | -76.10828 | 419 ft | 7 kts | 176° |
| 2026-04-26 18:27 | 43.11308 | -76.10821 | 419 ft | 11 kts | 176° |
| 2026-04-26 18:27 | 43.11214 | -76.10817 | 419 ft | 15 kts | 185° |
| 2026-04-26 18:28 | 43.11105 | -76.10822 | 419 ft | 16 kts | 179° |
| 2026-04-26 18:28 | 43.11012 | -76.10860 | 419 ft | 13 kts | 242° |
| 2026-04-26 18:28 | 43.10998 | -76.10985 | 419 ft | 14 kts | 268° |
| 2026-04-26 18:28 | 43.10992 | -76.11128 | 419 ft | 15 kts | 266° |
| 2026-04-26 18:29 | 43.10986 | -76.11285 | 419 ft | 16 kts | 268° |
| 2026-04-26 18:29 | 43.10984 | -76.11437 | 421 ft | 15 kts | 268° |
| 2026-04-26 18:29 | 43.10977 | -76.11590 | 423 ft | 17 kts | 267° |
| 2026-04-26 18:29 | 43.10976 | -76.11684 | 423 ft | 6 kts | 268° |
| 2026-04-26 18:30 | 43.10973 | -76.11771 | 423 ft | 14 kts | 267° |
| 2026-04-26 18:30 | 43.10966 | -76.11951 | 423 ft | 22 kts | 267° |
| 2026-04-26 18:30 | 43.10959 | -76.12160 | 423 ft | 18 kts | 267° |
| 2026-04-26 18:30 | 43.10955 | -76.12312 | 423 ft | 12 kts | 268° |
| 2026-04-26 18:31 | 43.10952 | -76.12364 | 423 ft | 1 kts | 265° |
| 2026-04-26 18:31 | 43.10951 | -76.12420 | 423 ft | 7 kts | 270° |
| 2026-04-26 18:31 | 43.10950 | -76.12478 | 423 ft | 5 kts | 268° |
| 2026-04-26 18:31 | 43.10946 | -76.12533 | 423 ft | 5 kts | 265° |
| 2026-04-26 18:32 | 43.10940 | -76.12590 | 423 ft | 5 kts | 252° |
| 2026-04-26 18:32 | 43.10926 | -76.12617 | 423 ft | 2 kts | 220° |
| 2026-04-26 18:32 | 43.10896 | -76.12629 | 423 ft | 3 kts | 172° |
| 2026-04-26 18:32 | 43.10863 | -76.12607 | 423 ft | 8 kts | 134° |
| 2026-04-26 18:33 | 43.10829 | -76.12495 | 423 ft | 19 kts | 100° |
| 2026-04-26 18:33 | 43.10837 | -76.12098 | 426 ft | 81 kts | 86° |
| 2026-04-26 18:33 | 43.10876 | -76.10938 | 419 ft | 160 kts | 88° |
| 2026-04-26 18:33 | 43.10920 | -76.09299 | 1011 ft | 179 kts | 89° |
| 2026-04-26 18:34 | 43.10952 | -76.07552 | 1781 ft | 197 kts | 89° |
| 2026-04-26 18:34 | 43.11008 | -76.05640 | 2688 ft | 207 kts | 86° |
| 2026-04-26 18:34 | 43.11128 | -76.03676 | 3663 ft | 217 kts | 98° |
| 2026-04-26 18:34 | 43.10679 | -76.01651 | 4347 ft | 239 kts | 122° |
| 2026-04-26 18:35 | 43.09555 | -76.00004 | 5291 ft | 241 kts | 158° |
| 2026-04-26 18:35 | 43.08071 | -75.99522 | 6718 ft | 222 kts | 177° |
| 2026-04-26 18:35 | 43.06576 | -75.99290 | 7915 ft | 218 kts | 180° |
| 2026-04-26 18:35 | 43.05090 | -75.99371 | 8815 ft | 222 kts | 194° |
| 2026-04-26 18:36 | 43.03538 | -75.99511 | 9712 ft | 233 kts | 181° |
| 2026-04-26 18:36 | 43.01857 | -75.99199 | 10251 ft | 259 kts | 175° |
| 2026-04-26 18:36 | 43.00089 | -75.98785 | 11348 ft | 257 kts | 176° |
| 2026-04-26 18:36 | 42.98319 | -75.98350 | 12219 ft | 264 kts | 172° |
| 2026-04-26 18:37 | 42.96503 | -75.97803 | 12647 ft | 282 kts | 173° |
| 2026-04-26 18:37 | 42.94481 | -75.97306 | 12924 ft | 303 kts | 175° |
| 2026-04-26 18:37 | 42.92355 | -75.96544 | 13139 ft | 333 kts | 161° |
| 2026-04-26 18:37 | 42.90266 | -75.94983 | 13550 ft | 351 kts | 154° |
| 2026-04-26 18:38 | 42.88150 | -75.93276 | 14121 ft | 360 kts | 155° |
| 2026-04-26 18:38 | 42.85965 | -75.91584 | 14793 ft | 364 kts | 155° |
| 2026-04-26 18:38 | 42.83786 | -75.89903 | 15556 ft | 366 kts | 156° |
| 2026-04-26 18:38 | 42.81540 | -75.88179 | 16180 ft | 371 kts | 156° |
| 2026-04-26 18:39 | 42.79327 | -75.86480 | 16985 ft | 370 kts | 156° |
| 2026-04-26 18:39 | 42.77056 | -75.84745 | 17548 ft | 376 kts | 156° |
| 2026-04-26 18:39 | 42.74797 | -75.83019 | 18276 ft | 376 kts | 156° |
| 2026-04-26 18:39 | 42.72510 | -75.81274 | 18884 ft | 379 kts | 156° |
| 2026-04-26 18:40 | 42.70219 | -75.79529 | 19489 ft | 381 kts | 157° |
| 2026-04-26 18:40 | 42.67921 | -75.77776 | 20104 ft | 383 kts | 157° |
| 2026-04-26 18:40 | 42.65579 | -75.75991 | 20659 ft | 386 kts | 157° |
| 2026-04-26 18:40 | 42.63231 | -75.74204 | 21238 ft | 387 kts | 157° |
| 2026-04-26 18:41 | 42.60901 | -75.72432 | 21770 ft | 390 kts | 157° |
| 2026-04-26 18:41 | 42.58532 | -75.70634 | 22283 ft | 392 kts | 157° |
| 2026-04-26 18:41 | 42.56146 | -75.68823 | 22828 ft | 393 kts | 157° |
| 2026-04-26 18:41 | 42.53751 | -75.67008 | 23288 ft | 396 kts | 158° |
| 2026-04-26 18:42 | 42.51356 | -75.65194 | 23776 ft | 397 kts | 158° |
| 2026-04-26 18:42 | 42.48923 | -75.63354 | 24241 ft | 399 kts | 158° |
| 2026-04-26 18:42 | 42.46507 | -75.61528 | 24704 ft | 401 kts | 158° |
| 2026-04-26 18:42 | 42.44080 | -75.59696 | 25096 ft | 403 kts | 158° |
| 2026-04-26 18:43 | 42.41619 | -75.57841 | 25550 ft | 404 kts | 158° |
| 2026-04-26 18:43 | 42.39177 | -75.56000 | 25966 ft | 406 kts | 158° |
| 2026-04-26 18:43 | 42.36721 | -75.54151 | 26348 ft | 407 kts | 158° |
| 2026-04-26 18:43 | 42.34229 | -75.52277 | 26765 ft | 408 kts | 158° |
| 2026-04-26 18:44 | 42.31735 | -75.50404 | 27091 ft | 410 kts | 158° |
| 2026-04-26 18:44 | 42.29259 | -75.48542 | 27188 ft | 410 kts | 158° |
| 2026-04-26 18:44 | 42.26747 | -75.46659 | 27179 ft | 408 kts | 158° |
| 2026-04-26 18:44 | 42.24276 | -75.44807 | 27152 ft | 407 kts | 158° |
| 2026-04-26 18:45 | 42.21801 | -75.42957 | 27182 ft | 407 kts | 158° |
| 2026-04-26 18:45 | 42.19300 | -75.41095 | 27434 ft | 412 kts | 158° |
| 2026-04-26 18:45 | 42.16819 | -75.39243 | 28007 ft | 409 kts | 158° |
| 2026-04-26 18:45 | 42.14350 | -75.37410 | 28393 ft | 410 kts | 158° |
| 2026-04-26 18:46 | 42.11907 | -75.35375 | 28846 ft | 416 kts | 152° |
| 2026-04-26 18:46 | 42.09723 | -75.32751 | 29170 ft | 426 kts | 140° |
| 2026-04-26 18:46 | 42.07956 | -75.29453 | 29189 ft | 438 kts | 131° |
| 2026-04-26 18:46 | 42.06455 | -75.25843 | 29181 ft | 449 kts | 125° |
| 2026-04-26 18:47 | 42.05366 | -75.21835 | 29162 ft | 468 kts | 113° |
| 2026-04-26 18:47 | 42.04792 | -75.17522 | 29176 ft | 477 kts | 107° |
| 2026-04-26 18:47 | 42.03902 | -75.08651 | 29154 ft | 477 kts | 107° |
| 2026-04-26 18:48 | 42.02969 | -74.99782 | 29155 ft | 476 kts | 107° |
| 2026-04-26 18:48 | 42.02039 | -74.90949 | 29153 ft | 474 kts | 106° |
| 2026-04-26 18:49 | 42.01110 | -74.82197 | 29157 ft | 474 kts | 106° |
| 2026-04-26 18:49 | 42.00178 | -74.73467 | 29155 ft | 474 kts | 106° |
| 2026-04-26 18:50 | 41.99233 | -74.64709 | 29156 ft | 474 kts | 106° |
| 2026-04-26 18:50 | 41.98273 | -74.55888 | 29155 ft | 473 kts | 107° |
| 2026-04-26 18:51 | 41.96793 | -74.47401 | 29149 ft | 458 kts | 120° |
| 2026-04-26 18:51 | 41.95319 | -74.43726 | 29159 ft | 443 kts | 132° |
| 2026-04-26 18:51 | 41.93518 | -74.40420 | 29165 ft | 440 kts | 135° |
| 2026-04-26 18:52 | 41.89831 | -74.33823 | 29156 ft | 440 kts | 135° |
| 2026-04-26 18:52 | 41.86167 | -74.27303 | 29159 ft | 439 kts | 136° |
| 2026-04-26 18:53 | 41.82643 | -74.21012 | 31324 ft | 369 kts | 136° |
| 2026-04-26 18:53 | 41.82229 | -74.19829 | 36865 ft | 151 kts | 169° |
| 2026-04-26 18:53 | 41.82174 | -74.19187 | 37248 ft | 136 kts | 145° |
| 2026-04-26 18:54 | 41.81504 | -74.18243 | 32594 ft | 309 kts | 163° |
| 2026-04-26 18:54 | 41.80108 | -74.17330 | 31099 ft | 335 kts | 158° |